Beech River Regional Airport


Codes: KPVE/
Name: Beech River Regional Airport
City: Lexington-Parsons
Country: United States
Elevation: 488 ft.

Photos at Beech River Regional Airport


   Photos courtesy of SpottingLog. You can add your own sightings and photos by signing up for a free trial today.



No photos found.

Weather at Beech River Regional Airport


Time (UTC)DescriptionTempratureWindCloud coverageVisibilityPressureHumidity
19-Apr-2024 03:00Light Rain23°C9 mph, SW75%10000m1015hPa73%
19-Apr-2024 06:00Light Rain21°C7 mph, S70%10000m1015hPa81%
19-Apr-2024 09:00Light Rain20°C4 mph, SW92%10000m1014hPa91%
19-Apr-2024 12:00Light Rain15°C11 mph, N99%10000m1017hPa96%
19-Apr-2024 15:00Overcast Clouds14°C11 mph, N100%10000m1019hPa92%
19-Apr-2024 18:00Overcast Clouds17°C9 mph, N99%10000m1019hPa78%
19-Apr-2024 21:00Overcast Clouds17°C9 mph, N100%10000m1019hPa74%
20-Apr-2024 00:00Overcast Clouds16°C7 mph, N100%10000m1020hPa73%
20-Apr-2024 03:00Overcast Clouds13°C9 mph, NE100%10000m1021hPa68%
20-Apr-2024 06:00Overcast Clouds10°C7 mph, N100%10000m1023hPa70%
20-Apr-2024 09:00Overcast Clouds9°C9 mph, N97%10000m1023hPa71%
20-Apr-2024 12:00Overcast Clouds8°C9 mph, NE99%10000m1025hPa67%
20-Apr-2024 15:00Overcast Clouds14°C13 mph, NE100%10000m1025hPa45%
20-Apr-2024 18:00Overcast Clouds17°C9 mph, NE91%10000m1024hPa39%
20-Apr-2024 21:00Overcast Clouds16°C9 mph, N100%10000m1023hPa47%
21-Apr-2024 00:00Overcast Clouds12°C9 mph, N100%10000m1023hPa62%
21-Apr-2024 03:00Overcast Clouds12°C7 mph, NE100%10000m1023hPa64%
21-Apr-2024 06:00Overcast Clouds10°C7 mph, N100%10000m1023hPa64%
21-Apr-2024 09:00Overcast Clouds9°C7 mph, N100%10000m1023hPa64%
21-Apr-2024 12:00Overcast Clouds8°C7 mph, N100%10000m1023hPa66%
21-Apr-2024 15:00Overcast Clouds9°C7 mph, NE100%10000m1024hPa67%
21-Apr-2024 18:00Light Rain11°C7 mph, N100%10000m1023hPa60%
21-Apr-2024 21:00Overcast Clouds15°C7 mph, N99%10000m1020hPa46%
22-Apr-2024 00:00Broken Clouds11°C7 mph, N69%10000m1020hPa67%
22-Apr-2024 03:00Few Clouds8°C4 mph, N23%10000m1021hPa76%
22-Apr-2024 06:00Few Clouds6°C2 mph, NE13%10000m1021hPa81%
22-Apr-2024 09:00Clear Sky5°C4 mph, N6%10000m1021hPa82%
22-Apr-2024 12:00Clear Sky6°C2 mph, NE7%10000m1021hPa80%
22-Apr-2024 15:00Clear Sky15°C2 mph, E5%10000m1021hPa51%
22-Apr-2024 18:00Clear Sky18°C4 mph, NW6%10000m1019hPa41%
22-Apr-2024 21:00Clear Sky18°C4 mph, W1%10000m1017hPa42%
23-Apr-2024 00:00Clear Sky14°C4 mph, SW1%10000m1017hPa66%
23-Apr-2024 03:00Clear Sky10°C4 mph, S0%10000m1018hPa69%
23-Apr-2024 06:00Clear Sky8°C7 mph, S0%10000m1018hPa79%
23-Apr-2024 09:00Clear Sky7°C7 mph, S5%10000m1018hPa86%
23-Apr-2024 12:00Few Clouds8°C7 mph, S21%10000m1018hPa85%
23-Apr-2024 15:00Scattered Clouds16°C11 mph, S25%10000m1018hPa61%
23-Apr-2024 18:00Scattered Clouds20°C13 mph, SW36%10000m1016hPa54%
23-Apr-2024 21:00Broken Clouds21°C7 mph, SW62%10000m1014hPa61%
24-Apr-2024 00:00Light Rain17°C7 mph, W81%10000m1015hPa79%